Aviation Digital Data Service (ADDS)

Output produced by METARs form (2140 UTC 18 December 2014)
found at http://www.aviationweather.gov/adds/metars/
 
KFIG 182105Z AUTO 28009G16KT 10SM OVC016 M02/M05 A3007 RMK AO2 T10171050
KFIG 182054Z AUTO 28009KT 10SM OVC014 M02/M04 A3007 RMK AO2 SLP201 T10221044 55001
KFIG 181954Z AUTO 26009KT 10SM OVC013 M02/M04 A3006 RMK AO2 SLP198 T10221044
KFIG 181854Z AUTO 26009KT 10SM OVC012 M02/M04 A3006 RMK AO2 SLP200 T10221044
KFIG 181754Z AUTO 28009KT 10SM OVC011 M02/M05 A3007 RMK AO2 SLP202 60000 T10221050 11022 21028 56009
KFIG 181654Z AUTO 26009KT 10SM OVC011 M02/M05 A3007 RMK AO2 SLP203 T10221050
KFIG 181554Z AUTO 27008KT 10SM OVC012 M03/M05 A3009 RMK AO2 SLP207 T10281050
KFIG 181514Z AUTO 26007KT 10SM OVC014 M02/M05 A3010 RMK AO2 T10221050
KFIG 181454Z AUTO 27010G15KT 10SM OVC015 M02/M06 A3010 RMK AO2 SLP210 60000 T10221056 51005
KFIG 181354Z AUTO 28006KT 10SM OVC016 M02/M06 A3009 RMK AO2 SLP207 T10221061
KFIG 181254Z AUTO 29010KT 10SM OVC017 M03/M06 A3009 RMK AO2 UPB11E20B42E51 SLP209 P0000 T10281061
KFIG 181154Z AUTO 27009KT 10SM OVC017 M03/M06 A3008 RMK AO2 UPB39E52SNE21 SLP205 P0000 60000 70001 T10281061 11022 21028 53006
KFIG 181054Z AUTO 27010KT 7SM -SN BKN018 OVC025 M03/M06 A3007 RMK AO2 SNB0955 SLP201 P0000 T10281061
KFIG 180954Z AUTO 26011G17KT 9SM OVC024 M03/M07 A3006 RMK AO2 UPB0857E27SNB0856E0857B0858E05B06E07B27E51 SLP199 P0000 T10281067
KFIG 180928Z AUTO 27012G20KT 9SM -SN BKN022 OVC029 M03/M07 A3006 RMK AO2 UPB0857E27SNB0856E0857B0858E05B06E07B27 P0000 T10281067
KFIG 180854Z AUTO 26013G18KT 10SM SCT023 OVC033 M03/M07 A3006 RMK AO2 SNE48 SLP197 P0000 60000 T10281067 51012
KFIG 180754Z AUTO 26008G22KT 7SM -SN FEW023 SCT028 OVC039 M03/M07 A3006 RMK AO2 SLP197 P0000 T10281067
KFIG 180742Z AUTO 26010G21KT 9SM -SN BKN025 OVC037 M03/M07 A3006 RMK AO2 P0000 T10281067
KFIG 180654Z AUTO 25012G17KT 9SM -SN SCT029 BKN035 OVC041 M02/M07 A3004 RMK AO2 UPB16E23B39E42SNB23E39B44 SLP190 P0000 T10221067
KFIG 180554Z AUTO 26005KT 9SM OVC048 M03/M06 A3002 RMK AO2 SNB03E49 SLP183 P0000 60000 T10281061 11006 21028 50002
KFIG 180454Z AUTO 26006KT 10SM FEW041 OVC049 M02/M06 A3003 RMK AO2 SNE48 SLP184 P0000 T10221061 400501022
KFIG 180404Z AUTO 27009KT 5SM -SN SCT023 BKN037 OVC044 M02/M06 A3003 RMK AO2 P0000 T10221061
KFIG 180354Z AUTO 27006G18KT 5SM -SN BKN023 OVC035 M02/M06 A3003 RMK AO2 SNB43 SLP182 P0000 T10221061
KFIG 180254Z AUTO 27011G17KT 10SM OVC021 M02/M06 A3002 RMK AO2 UPB14E29 SLP180 P0000 60000 T10171061 51003
KFIG 180154Z AUTO 28011G20KT 10SM OVC027 M01/M07 A3002 RMK AO2 SLP179 T10111067
KFIG 180054Z AUTO 27009G17KT 10SM OVC024 M01/M06 A3001 RMK AO2 SLP177 T10111056
KFIG 172354Z AUTO 27011KT 10SM OVC027 M01/M06 A3001 RMK AO2 SLP175 60000 T10061056 10022 21006 53008
KFIG 172254Z AUTO 26009G17KT 10SM OVC027 M01/M06 A3000 RMK AO2 SLP170 T10061056
KFIG 172154Z AUTO 26008G16KT 10SM OVC021 M01/M04 A2999 RMK AO2 UPB01E20 SLP169 P0000 T10061044
KFIG 172054Z AUTO 25007KT 10SM BKN019 OVC024 00/M03 A2998 RMK AO2 UPB21E28B46E52SNE1958B28E46B52E53 SLP165 P0000 60000 T00001033 53013
KFIG 171954Z AUTO 27014G21KT 4SM -SN FEW020 BKN029 OVC039 01/M03 A2996 RMK AO2 RAB1855E1856UPB1856E05B44E46SNB46 SLP157 P0000 T00061028
KFIG 171942Z AUTO 26009G19KT 230V300 10SM BKN023 BKN029 OVC041 01/M02 A2996 RMK AO2 RAB1855E1856UPB1856E05 P0000 T00111022
KFIG 171912Z AUTO 27015G24KT 10SM FEW018 SCT024 OVC043 02/M02 A2994 RMK AO2 RAB1855E1856UPB1856E05 P0000 T00171022
KFIG 171854Z AUTO 25014G20KT 9SM BKN018 BKN023 OVC045 02/M01 A2994 RMK AO2 UPB06E07SNB05E06B07E42 SLP150 P0000 T00171011
KFIG 171754Z AUTO 27014G25KT 10SM FEW008 BKN021 OVC030 02/M01 A2994 RMK AO2 SNB12E45 SLP151 P0000 60001 T00171011 10039 20011 55003
KFIG 171744Z AUTO 26011G22KT 8SM -SN FEW008 BKN016 OVC025 02/M01 A2995 RMK AO2 SNB12 P0000 T00171006
KFIG 171733Z AUTO 25012KT 2 1/2SM -SN BR FEW008 BKN017 OVC033 01/00 A2995 RMK AO2 VIS 1 1/2V5 SNB12 P0000 T00110000
KFIG 171710Z AUTO 26011G25KT 10SM BKN021 BKN030 OVC038 02/M01 A2995 RMK AO2 T00221011
KFIG 171654Z AUTO 29015G23KT 10SM SCT021 OVC038 03/M01 A2994 RMK AO2 RAE21 SLP150 P0000 T00331006
KFIG 171645Z AUTO 27012G19KT 10SM FEW021 BKN040 04/00 A2994 RMK AO2 RAE21 P0000 T00390000
KFIG 171620Z AUTO 27011G22KT 10SM -RA FEW009 BKN017 OVC070 03/01 A2995 RMK AO2 P0000 T00280011
KFIG 171610Z AUTO 27011G22KT 7SM -RA SCT009 BKN013 OVC018 02/01 A2995 RMK AO2 P0000 T00220006
KFIG 171554Z AUTO 25014G22KT 10SM -RA FEW013 BKN017 OVC030 03/01 A2995 RMK AO2 RAE35B53 SLP152 P0000 T00330011
KFIG 171454Z AUTO 25012G20KT 10SM -RA OVC015 03/01 A2995 RMK AO2 RAE02B31 SLP154 P0000 60001 T00280006 51012
KFIG 171436Z AUTO 25011KT 10SM -RA BKN014 OVC021 03/01 A2995 RMK AO2 RAE02B31 P0000 T00280011
KFIG 171428Z AUTO 24011G16KT 10SM BKN016 OVC021 03/01 A2995 RMK AO2 RAE02 P0000 T00280011
KFIG 171354Z AUTO 24008KT 9SM -RA BKN013 OVC020 03/01 A2994 RMK AO2 RAB11E47B51 SLP150 P0001 T00280011
KFIG 171350Z AUTO 25010KT 10SM FEW010 BKN015 OVC029 03/01 A2994 RMK AO2 RAB11E47 P0001
KFIG 171254Z AUTO 25010G16KT 10SM FEW007 OVC014 03/02 A2992 RMK AO2 RAE00B31E49 SLP141 P0000 T00330017
KFIG 171230Z AUTO 25007KT 10SM FEW007 OVC014 03/02 A2991 RMK AO2 RAE00 P0000 T00330022
KFIG 171154Z AUTO 26010KT 10SM -RA BKN018 BKN024 OVC035 04/02 A2990 RMK AO2 RAE06B50 SLP137 P0000 60001 70038 T00390022 10050 20039 53014
KFIG 171135Z AUTO 26011G18KT 10SM BKN015 BKN019 OVC024 04/02 A2990 RMK AO2 RAE06 P0000 T00390022
KFIG 171054Z AUTO 24011G20KT 8SM -RA OVC013 04/03 A2988 RMK AO2 RAE04B18 SLP129 P0000 T00390028
KFIG 171013Z AUTO 24010KT 10SM OVC013 04/03 A2987 RMK AO2 RAE04 P0000 T00440033
KFIG 170954Z AUTO 24011G17KT 10SM -RA BKN015 OVC020 04/03 A2986 RMK AO2 SLP122 P0000 T00440033